sensor_id;sensor_type;location;lat;lon;timestamp;temperature;humidity
55091;DHT22;40985;53.180;5.800;2024-01-30T00:01:41;4.30;99.90
55091;DHT22;40985;53.180;5.800;2024-01-30T00:04:07;4.10;99.90
55091;DHT22;40985;53.180;5.800;2024-01-30T00:06:33;4.30;99.90
55091;DHT22;40985;53.180;5.800;2024-01-30T00:08:58;3.90;99.90
55091;DHT22;40985;53.180;5.800;2024-01-30T00:11:24;4.40;99.90
55091;DHT22;40985;53.180;5.800;2024-01-30T00:13:51;3.80;99.90
55091;DHT22;40985;53.180;5.800;2024-01-30T00:16:24;4.20;99.90
55091;DHT22;40985;53.180;5.800;2024-01-30T00:18:51;4.30;99.90
55091;DHT22;40985;53.180;5.800;2024-01-30T00:21:17;3.90;99.90
55091;DHT22;40985;53.180;5.800;2024-01-30T00:23:43;3.80;99.90
55091;DHT22;40985;53.180;5.800;2024-01-30T00:26:09;4.10;99.90
55091;DHT22;40985;53.180;5.800;2024-01-30T00:28:34;3.70;99.90
55091;DHT22;40985;53.180;5.800;2024-01-30T00:31:00;4.20;99.90
55091;DHT22;40985;53.180;5.800;2024-01-30T00:33:26;4.30;99.90
55091;DHT22;40985;53.180;5.800;2024-01-30T00:35:52;4.30;99.90
55091;DHT22;40985;53.180;5.800;2024-01-30T00:38:17;3.80;99.90
55091;DHT22;40985;53.180;5.800;2024-01-30T00:40:43;3.80;99.90
55091;DHT22;40985;53.180;5.800;2024-01-30T00:43:09;3.70;99.90
55091;DHT22;40985;53.180;5.800;2024-01-30T00:45:34;4.10;99.90
55091;DHT22;40985;53.180;5.800;2024-01-30T00:48:00;4.00;99.90
55091;DHT22;40985;53.180;5.800;2024-01-30T00:50:26;4.00;99.90
55091;DHT22;40985;53.180;5.800;2024-01-30T00:52:52;4.10;99.90
55091;DHT22;40985;53.180;5.800;2024-01-30T00:55:17;4.10;99.90
55091;DHT22;40985;53.180;5.800;2024-01-30T00:57:43;3.60;99.90
55091;DHT22;40985;53.180;5.800;2024-01-30T01:00:09;3.60;99.90
55091;DHT22;40985;53.180;5.800;2024-01-30T01:02:35;3.60;99.90
55091;DHT22;40985;53.180;5.800;2024-01-30T01:05:01;3.50;99.90
55091;DHT22;40985;53.180;5.800;2024-01-30T01:07:27;3.90;99.90
55091;DHT22;40985;53.180;5.800;2024-01-30T01:09:53;4.00;99.90
55091;DHT22;40985;53.180;5.800;2024-01-30T01:12:18;3.80;99.90
55091;DHT22;40985;53.180;5.800;2024-01-30T01:14:45;3.50;99.90
55091;DHT22;40985;53.180;5.800;2024-01-30T01:17:10;4.10;99.90
55091;DHT22;40985;53.180;5.800;2024-01-30T01:19:36;4.20;99.90
55091;DHT22;40985;53.180;5.800;2024-01-30T01:22:02;3.60;99.90
55091;DHT22;40985;53.180;5.800;2024-01-30T01:24:30;3.90;99.90
55091;DHT22;40985;53.180;5.800;2024-01-30T01:26:57;4.30;99.90
55091;DHT22;40985;53.180;5.800;2024-01-30T01:29:23;4.30;99.90
55091;DHT22;40985;53.180;5.800;2024-01-30T01:31:57;3.90;99.90
55091;DHT22;40985;53.180;5.800;2024-01-30T01:34:23;4.20;99.90
55091;DHT22;40985;53.180;5.800;2024-01-30T01:36:49;4.50;99.90
55091;DHT22;40985;53.180;5.800;2024-01-30T01:39:15;4.40;99.90
55091;DHT22;40985;53.180;5.800;2024-01-30T01:41:41;4.50;99.90
55091;DHT22;40985;53.180;5.800;2024-01-30T01:44:07;4.00;99.90
55091;DHT22;40985;53.180;5.800;2024-01-30T01:46:34;4.00;99.90
55091;DHT22;40985;53.180;5.800;2024-01-30T01:49:04;4.00;99.90
55091;DHT22;40985;53.180;5.800;2024-01-30T01:51:32;4.00;99.90
55091;DHT22;40985;53.180;5.800;2024-01-30T01:54:00;4.10;99.90
55091;DHT22;40985;53.180;5.800;2024-01-30T01:56:27;4.40;99.90
55091;DHT22;40985;53.180;5.800;2024-01-30T01:58:55;4.10;99.90
55091;DHT22;40985;53.180;5.800;2024-01-30T02:01:21;4.20;99.90
55091;DHT22;40985;53.180;5.800;2024-01-30T02:03:48;4.70;99.90
55091;DHT22;40985;53.180;5.800;2024-01-30T02:06:14;4.90;99.90
55091;DHT22;40985;53.180;5.800;2024-01-30T02:08:42;4.50;99.90
55091;DHT22;40985;53.180;5.800;2024-01-30T02:11:08;4.70;99.90
55091;DHT22;40985;53.180;5.800;2024-01-30T02:13:36;5.10;99.90
55091;DHT22;40985;53.180;5.800;2024-01-30T02:16:01;4.60;99.90
55091;DHT22;40985;53.180;5.800;2024-01-30T02:18:27;5.10;99.90
55091;DHT22;40985;53.180;5.800;2024-01-30T02:20:54;4.60;99.90
55091;DHT22;40985;53.180;5.800;2024-01-30T02:23:23;5.30;99.90
55091;DHT22;40985;53.180;5.800;2024-01-30T02:25:50;4.80;99.90
55091;DHT22;40985;53.180;5.800;2024-01-30T02:28:19;5.30;99.90
55091;DHT22;40985;53.180;5.800;2024-01-30T02:30:46;5.30;99.90
55091;DHT22;40985;53.180;5.800;2024-01-30T02:33:12;4.90;99.90
55091;DHT22;40985;53.180;5.800;2024-01-30T02:35:38;4.90;99.90
55091;DHT22;40985;53.180;5.800;2024-01-30T02:38:04;4.90;99.90
55091;DHT22;40985;53.180;5.800;2024-01-30T02:40:30;5.60;99.90
55091;DHT22;40985;53.180;5.800;2024-01-30T02:42:57;4.90;99.90
55091;DHT22;40985;53.180;5.800;2024-01-30T02:45:23;5.60;99.90
55091;DHT22;40985;53.180;5.800;2024-01-30T02:47:49;5.10;99.90
55091;DHT22;40985;53.180;5.800;2024-01-30T02:50:14;5.60;99.90
55091;DHT22;40985;53.180;5.800;2024-01-30T02:52:40;5.60;99.90
55091;DHT22;40985;53.180;5.800;2024-01-30T02:55:06;5.50;99.90
55091;DHT22;40985;53.180;5.800;2024-01-30T02:57:32;5.40;99.90
55091;DHT22;40985;53.180;5.800;2024-01-30T02:59:58;5.10;99.90
55091;DHT22;40985;53.180;5.800;2024-01-30T03:02:24;4.80;99.90
55091;DHT22;40985;53.180;5.800;2024-01-30T03:04:49;4.80;99.90
55091;DHT22;40985;53.180;5.800;2024-01-30T03:07:15;5.40;99.90
55091;DHT22;40985;53.180;5.800;2024-01-30T03:09:41;5.10;99.90
55091;DHT22;40985;53.180;5.800;2024-01-30T03:12:09;4.80;99.90
55091;DHT22;40985;53.180;5.800;2024-01-30T03:14:35;5.20;99.90
55091;DHT22;40985;53.180;5.800;2024-01-30T03:17:00;4.70;99.90
55091;DHT22;40985;53.180;5.800;2024-01-30T03:19:26;5.20;99.90
55091;DHT22;40985;53.180;5.800;2024-01-30T03:21:52;4.90;99.90
55091;DHT22;40985;53.180;5.800;2024-01-30T03:24:18;5.00;99.90
55091;DHT22;40985;53.180;5.800;2024-01-30T03:26:43;4.80;99.90
55091;DHT22;40985;53.180;5.800;2024-01-30T03:29:09;4.60;99.90
55091;DHT22;40985;53.180;5.800;2024-01-30T03:31:35;4.60;99.90
55091;DHT22;40985;53.180;5.800;2024-01-30T03:34:01;5.30;99.90
55091;DHT22;40985;53.180;5.800;2024-01-30T03:36:27;5.20;99.90
55091;DHT22;40985;53.180;5.800;2024-01-30T03:38:53;5.20;99.90
55091;DHT22;40985;53.180;5.800;2024-01-30T03:41:19;4.60;99.90
55091;DHT22;40985;53.180;5.800;2024-01-30T03:43:44;5.30;99.90
55091;DHT22;40985;53.180;5.800;2024-01-30T03:46:12;4.70;99.90
55091;DHT22;40985;53.180;5.800;2024-01-30T03:48:37;4.70;99.90
55091;DHT22;40985;53.180;5.800;2024-01-30T03:51:03;4.70;99.90
55091;DHT22;40985;53.180;5.800;2024-01-30T03:53:29;4.90;99.90
55091;DHT22;40985;53.180;5.800;2024-01-30T03:55:55;4.70;99.90
55091;DHT22;40985;53.180;5.800;2024-01-30T03:58:21;5.40;99.90
55091;DHT22;40985;53.180;5.800;2024-01-30T04:00:47;5.10;99.90
55091;DHT22;40985;53.180;5.800;2024-01-30T04:03:14;4.70;99.90
55091;DHT22;40985;53.180;5.800;2024-01-30T04:05:40;5.00;99.90
55091;DHT22;40985;53.180;5.800;2024-01-30T04:08:06;5.50;99.90
55091;DHT22;40985;53.180;5.800;2024-01-30T04:10:31;4.90;99.90
55091;DHT22;40985;53.180;5.800;2024-01-30T04:12:57;4.90;99.90
55091;DHT22;40985;53.180;5.800;2024-01-30T04:15:22;5.60;99.90
55091;DHT22;40985;53.180;5.800;2024-01-30T04:17:48;5.30;99.90
55091;DHT22;40985;53.180;5.800;2024-01-30T04:20:17;5.30;99.90
55091;DHT22;40985;53.180;5.800;2024-01-30T04:22:46;4.90;99.90
55091;DHT22;40985;53.180;5.800;2024-01-30T04:25:13;5.20;99.90
55091;DHT22;40985;53.180;5.800;2024-01-30T04:27:39;5.00;99.90
55091;DHT22;40985;53.180;5.800;2024-01-30T04:30:05;5.70;99.90
55091;DHT22;40985;53.180;5.800;2024-01-30T04:32:32;5.10;99.90
55091;DHT22;40985;53.180;5.800;2024-01-30T04:34:57;5.00;99.90
55091;DHT22;40985;53.180;5.800;2024-01-30T04:37:24;5.10;99.90
55091;DHT22;40985;53.180;5.800;2024-01-30T04:39:50;5.10;99.90
55091;DHT22;40985;53.180;5.800;2024-01-30T04:42:16;5.10;99.90
55091;DHT22;40985;53.180;5.800;2024-01-30T04:44:42;5.80;99.90
55091;DHT22;40985;53.180;5.800;2024-01-30T04:47:08;5.30;99.90
55091;DHT22;40985;53.180;5.800;2024-01-30T04:49:35;5.80;99.90
55091;DHT22;40985;53.180;5.800;2024-01-30T04:52:01;5.50;99.90
55091;DHT22;40985;53.180;5.800;2024-01-30T04:54:26;5.50;99.90
55091;DHT22;40985;53.180;5.800;2024-01-30T04:56:52;5.80;99.90
55091;DHT22;40985;53.180;5.800;2024-01-30T04:59:18;5.30;99.90
55091;DHT22;40985;53.180;5.800;2024-01-30T05:01:44;5.90;99.90
55091;DHT22;40985;53.180;5.800;2024-01-30T05:04:09;5.40;99.90
55091;DHT22;40985;53.180;5.800;2024-01-30T05:06:35;5.20;99.90
55091;DHT22;40985;53.180;5.800;2024-01-30T05:09:01;6.00;99.90
55091;DHT22;40985;53.180;5.800;2024-01-30T05:11:27;5.30;99.90
55091;DHT22;40985;53.180;5.800;2024-01-30T05:13:52;5.20;99.90
55091;DHT22;40985;53.180;5.800;2024-01-30T05:16:18;5.70;99.90
55091;DHT22;40985;53.180;5.800;2024-01-30T05:18:44;5.40;99.90
55091;DHT22;40985;53.180;5.800;2024-01-30T05:21:10;5.20;99.90
55091;DHT22;40985;53.180;5.800;2024-01-30T05:23:36;6.00;99.90
55091;DHT22;40985;53.180;5.800;2024-01-30T05:26:02;6.00;99.90
55091;DHT22;40985;53.180;5.800;2024-01-30T05:28:29;5.40;99.90
55091;DHT22;40985;53.180;5.800;2024-01-30T05:30:56;5.90;99.90
55091;DHT22;40985;53.180;5.800;2024-01-30T05:33:22;5.90;99.90
55091;DHT22;40985;53.180;5.800;2024-01-30T05:35:47;5.80;99.90
55091;DHT22;40985;53.180;5.800;2024-01-30T05:38:15;5.30;99.90
55091;DHT22;40985;53.180;5.800;2024-01-30T05:40:41;6.10;99.90
55091;DHT22;40985;53.180;5.800;2024-01-30T05:43:07;5.50;99.90
55091;DHT22;40985;53.180;5.800;2024-01-30T05:45:33;6.10;99.90
55091;DHT22;40985;53.180;5.800;2024-01-30T05:48:00;5.80;99.90
55091;DHT22;40985;53.180;5.800;2024-01-30T05:50:26;5.30;99.90
55091;DHT22;40985;53.180;5.800;2024-01-30T05:52:52;5.30;99.90
55091;DHT22;40985;53.180;5.800;2024-01-30T05:55:18;5.90;99.90
55091;DHT22;40985;53.180;5.800;2024-01-30T05:57:44;6.00;99.90
55091;DHT22;40985;53.180;5.800;2024-01-30T06:00:10;5.40;99.90
55091;DHT22;40985;53.180;5.800;2024-01-30T06:02:36;5.40;99.90
55091;DHT22;40985;53.180;5.800;2024-01-30T06:05:02;5.90;99.90
55091;DHT22;40985;53.180;5.800;2024-01-30T06:07:28;5.50;99.90
55091;DHT22;40985;53.180;5.800;2024-01-30T06:09:53;5.50;99.90
55091;DHT22;40985;53.180;5.800;2024-01-30T06:12:19;5.50;99.90
55091;DHT22;40985;53.180;5.800;2024-01-30T06:14:45;6.30;99.90
55091;DHT22;40985;53.180;5.800;2024-01-30T06:17:11;5.60;99.90
55091;DHT22;40985;53.180;5.800;2024-01-30T06:19:38;6.20;99.90
55091;DHT22;40985;53.180;5.800;2024-01-30T06:22:05;5.50;99.90
55091;DHT22;40985;53.180;5.800;2024-01-30T06:24:30;5.60;99.90
55091;DHT22;40985;53.180;5.800;2024-01-30T06:26:56;5.80;99.90
55091;DHT22;40985;53.180;5.800;2024-01-30T06:29:22;5.70;99.90
55091;DHT22;40985;53.180;5.800;2024-01-30T06:31:50;6.00;99.90
55091;DHT22;40985;53.180;5.800;2024-01-30T06:34:16;6.40;99.90
55091;DHT22;40985;53.180;5.800;2024-01-30T06:36:41;6.40;99.90
55091;DHT22;40985;53.180;5.800;2024-01-30T06:39:07;6.30;99.90
55091;DHT22;40985;53.180;5.800;2024-01-30T06:41:33;5.60;99.90
55091;DHT22;40985;53.180;5.800;2024-01-30T06:43:59;6.30;99.90
55091;DHT22;40985;53.180;5.800;2024-01-30T06:46:24;5.70;99.90
55091;DHT22;40985;53.180;5.800;2024-01-30T06:48:50;5.60;99.90
55091;DHT22;40985;53.180;5.800;2024-01-30T06:51:16;5.60;99.90
55091;DHT22;40985;53.180;5.800;2024-01-30T06:53:42;6.20;99.90
55091;DHT22;40985;53.180;5.800;2024-01-30T06:56:07;6.10;99.90
55091;DHT22;40985;53.180;5.800;2024-01-30T06:58:33;6.20;99.90
55091;DHT22;40985;53.180;5.800;2024-01-30T07:00:59;6.10;99.90
55091;DHT22;40985;53.180;5.800;2024-01-30T07:03:24;5.90;99.90
55091;DHT22;40985;53.180;5.800;2024-01-30T07:05:50;6.00;99.90
55091;DHT22;40985;53.180;5.800;2024-01-30T07:08:17;6.40;99.90
55091;DHT22;40985;53.180;5.800;2024-01-30T07:10:46;6.00;99.90
55091;DHT22;40985;53.180;5.800;2024-01-30T07:13:12;6.50;99.90
55091;DHT22;40985;53.180;5.800;2024-01-30T07:15:38;6.40;99.90
55091;DHT22;40985;53.180;5.800;2024-01-30T07:18:05;5.90;99.90
55091;DHT22;40985;53.180;5.800;2024-01-30T07:20:31;5.80;99.90
55091;DHT22;40985;53.180;5.800;2024-01-30T07:23:00;6.60;99.90
55091;DHT22;40985;53.180;5.800;2024-01-30T07:25:26;6.10;99.90
55091;DHT22;40985;53.180;5.800;2024-01-30T07:27:58;6.70;99.90
55091;DHT22;40985;53.180;5.800;2024-01-30T07:30:24;6.00;99.90
55091;DHT22;40985;53.180;5.800;2024-01-30T07:32:50;6.10;99.90
55091;DHT22;40985;53.180;5.800;2024-01-30T07:35:15;6.40;99.90
55091;DHT22;40985;53.180;5.800;2024-01-30T07:37:41;6.50;99.90
55091;DHT22;40985;53.180;5.800;2024-01-30T07:40:07;6.30;99.90
55091;DHT22;40985;53.180;5.800;2024-01-30T07:42:33;6.40;99.90
55091;DHT22;40985;53.180;5.800;2024-01-30T07:45:00;6.80;99.90
55091;DHT22;40985;53.180;5.800;2024-01-30T07:47:26;6.20;99.90
55091;DHT22;40985;53.180;5.800;2024-01-30T07:49:52;6.30;99.90
55091;DHT22;40985;53.180;5.800;2024-01-30T07:52:18;6.20;99.90
55091;DHT22;40985;53.180;5.800;2024-01-30T07:54:50;7.00;99.90
55091;DHT22;40985;53.180;5.800;2024-01-30T07:57:17;6.30;99.90
55091;DHT22;40985;53.180;5.800;2024-01-30T07:59:43;7.00;99.90
55091;DHT22;40985;53.180;5.800;2024-01-30T08:02:10;6.40;99.90
55091;DHT22;40985;53.180;5.800;2024-01-30T08:04:36;7.10;99.90
55091;DHT22;40985;53.180;5.800;2024-01-30T08:07:01;7.20;99.90
55091;DHT22;40985;53.180;5.800;2024-01-30T08:09:27;6.70;99.90
55091;DHT22;40985;53.180;5.800;2024-01-30T08:11:53;7.40;99.90
55091;DHT22;40985;53.180;5.800;2024-01-30T08:14:19;7.40;99.90
55091;DHT22;40985;53.180;5.800;2024-01-30T08:16:44;7.60;99.90
55091;DHT22;40985;53.180;5.800;2024-01-30T08:19:10;7.20;99.90
55091;DHT22;40985;53.180;5.800;2024-01-30T08:21:35;7.30;99.90
55091;DHT22;40985;53.180;5.800;2024-01-30T08:24:04;7.30;99.90
55091;DHT22;40985;53.180;5.800;2024-01-30T08:26:33;7.80;99.90
55091;DHT22;40985;53.180;5.800;2024-01-30T08:28:59;7.70;99.90
55091;DHT22;40985;53.180;5.800;2024-01-30T08:31:25;8.10;99.90
55091;DHT22;40985;53.180;5.800;2024-01-30T08:33:51;7.60;99.90
55091;DHT22;40985;53.180;5.800;2024-01-30T08:36:17;8.10;99.90
55091;DHT22;40985;53.180;5.800;2024-01-30T08:38:43;7.70;99.90
55091;DHT22;40985;53.180;5.800;2024-01-30T08:41:09;7.90;99.90
55091;DHT22;40985;53.180;5.800;2024-01-30T08:43:35;7.90;99.90
55091;DHT22;40985;53.180;5.800;2024-01-30T08:46:02;8.30;99.90
55091;DHT22;40985;53.180;5.800;2024-01-30T08:48:27;7.90;99.90
55091;DHT22;40985;53.180;5.800;2024-01-30T08:50:53;8.10;99.90
55091;DHT22;40985;53.180;5.800;2024-01-30T08:53:19;8.30;99.90
55091;DHT22;40985;53.180;5.800;2024-01-30T08:55:45;8.20;99.90
55091;DHT22;40985;53.180;5.800;2024-01-30T08:58:11;8.90;99.90
55091;DHT22;40985;53.180;5.800;2024-01-30T09:00:36;8.80;99.90
55091;DHT22;40985;53.180;5.800;2024-01-30T09:03:03;8.50;99.90
55091;DHT22;40985;53.180;5.800;2024-01-30T09:05:29;8.90;99.90
55091;DHT22;40985;53.180;5.800;2024-01-30T09:07:55;8.90;99.90
55091;DHT22;40985;53.180;5.800;2024-01-30T09:10:20;9.00;99.90
55091;DHT22;40985;53.180;5.800;2024-01-30T09:12:47;8.90;99.90
55091;DHT22;40985;53.180;5.800;2024-01-30T09:15:12;8.50;99.90
55091;DHT22;40985;53.180;5.800;2024-01-30T09:17:38;9.00;99.90
55091;DHT22;40985;53.180;5.800;2024-01-30T09:20:05;8.80;99.90
55091;DHT22;40985;53.180;5.800;2024-01-30T09:22:30;8.60;99.90
55091;DHT22;40985;53.180;5.800;2024-01-30T09:24:57;8.90;99.90
55091;DHT22;40985;53.180;5.800;2024-01-30T09:27:23;8.80;99.90
55091;DHT22;40985;53.180;5.800;2024-01-30T09:29:48;8.90;99.90
55091;DHT22;40985;53.180;5.800;2024-01-30T09:32:14;9.10;99.90
55091;DHT22;40985;53.180;5.800;2024-01-30T09:34:40;9.10;99.90
55091;DHT22;40985;53.180;5.800;2024-01-30T09:37:07;8.90;99.90
55091;DHT22;40985;53.180;5.800;2024-01-30T09:39:33;8.70;99.90
55091;DHT22;40985;53.180;5.800;2024-01-30T09:44:35;9.10;99.90
55091;DHT22;40985;53.180;5.800;2024-01-30T09:47:01;9.10;99.90
55091;DHT22;40985;53.180;5.800;2024-01-30T09:49:34;8.70;99.90
55091;DHT22;40985;53.180;5.800;2024-01-30T09:52:02;8.70;99.90
55091;DHT22;40985;53.180;5.800;2024-01-30T09:54:31;9.00;99.90
55091;DHT22;40985;53.180;5.800;2024-01-30T09:57:00;9.10;99.90
55091;DHT22;40985;53.180;5.800;2024-01-30T09:59:26;9.00;99.90
55091;DHT22;40985;53.180;5.800;2024-01-30T10:01:52;9.10;99.90
55091;DHT22;40985;53.180;5.800;2024-01-30T10:04:18;9.10;99.90
55091;DHT22;40985;53.180;5.800;2024-01-30T10:06:43;8.80;99.90
55091;DHT22;40985;53.180;5.800;2024-01-30T10:09:09;8.80;99.90
55091;DHT22;40985;53.180;5.800;2024-01-30T10:11:36;8.70;99.90
55091;DHT22;40985;53.180;5.800;2024-01-30T10:14:02;9.00;99.90
55091;DHT22;40985;53.180;5.800;2024-01-30T10:16:28;9.00;99.90
55091;DHT22;40985;53.180;5.800;2024-01-30T10:18:54;8.60;99.90
55091;DHT22;40985;53.180;5.800;2024-01-30T10:21:20;8.80;99.90
55091;DHT22;40985;53.180;5.800;2024-01-30T10:23:46;8.60;99.90
55091;DHT22;40985;53.180;5.800;2024-01-30T10:26:11;8.80;99.90
55091;DHT22;40985;53.180;5.800;2024-01-30T10:28:37;8.80;99.90
55091;DHT22;40985;53.180;5.800;2024-01-30T10:31:03;8.40;99.90
55091;DHT22;40985;53.180;5.800;2024-01-30T10:33:32;8.60;99.90
55091;DHT22;40985;53.180;5.800;2024-01-30T10:36:01;8.60;99.90
55091;DHT22;40985;53.180;5.800;2024-01-30T10:38:29;8.30;99.90
55091;DHT22;40985;53.180;5.800;2024-01-30T10:41:00;8.70;99.90
55091;DHT22;40985;53.180;5.800;2024-01-30T10:43:35;8.40;99.90
55091;DHT22;40985;53.180;5.800;2024-01-30T10:48:44;8.50;99.90
55091;DHT22;40985;53.180;5.800;2024-01-30T10:51:13;8.20;99.90
55091;DHT22;40985;53.180;5.800;2024-01-30T10:53:40;8.50;99.90
55091;DHT22;40985;53.180;5.800;2024-01-30T10:56:06;8.20;99.90
55091;DHT22;40985;53.180;5.800;2024-01-30T10:58:33;8.20;99.90
55091;DHT22;40985;53.180;5.800;2024-01-30T11:00:59;8.10;99.90
55091;DHT22;40985;53.180;5.800;2024-01-30T11:03:26;8.40;99.90
55091;DHT22;40985;53.180;5.800;2024-01-30T11:05:52;8.10;99.90
55091;DHT22;40985;53.180;5.800;2024-01-30T11:08:27;8.40;99.90
55091;DHT22;40985;53.180;5.800;2024-01-30T11:10:57;8.30;99.90
55091;DHT22;40985;53.180;5.800;2024-01-30T11:13:27;8.40;99.90
55091;DHT22;40985;53.180;5.800;2024-01-30T11:15:54;8.50;99.90
55091;DHT22;40985;53.180;5.800;2024-01-30T11:18:26;8.00;99.90
55091;DHT22;40985;53.180;5.800;2024-01-30T11:20:56;8.00;99.90
55091;DHT22;40985;53.180;5.800;2024-01-30T11:23:22;8.60;99.90
55091;DHT22;40985;53.180;5.800;2024-01-30T11:25:48;8.50;99.90
55091;DHT22;40985;53.180;5.800;2024-01-30T11:28:15;8.50;99.90
55091;DHT22;40985;53.180;5.800;2024-01-30T11:30:42;8.60;99.90
55091;DHT22;40985;53.180;5.800;2024-01-30T11:33:09;8.00;99.90
55091;DHT22;40985;53.180;5.800;2024-01-30T11:35:38;8.20;99.90
55091;DHT22;40985;53.180;5.800;2024-01-30T11:38:08;8.10;99.90
55091;DHT22;40985;53.180;5.800;2024-01-30T11:40:35;8.50;99.90
55091;DHT22;40985;53.180;5.800;2024-01-30T11:43:02;8.20;99.90
55091;DHT22;40985;53.180;5.800;2024-01-30T11:45:28;8.40;99.90
55091;DHT22;40985;53.180;5.800;2024-01-30T11:47:55;8.40;99.90
55091;DHT22;40985;53.180;5.800;2024-01-30T11:50:21;8.40;99.90
55091;DHT22;40985;53.180;5.800;2024-01-30T11:52:47;8.40;99.90
55091;DHT22;40985;53.180;5.800;2024-01-30T11:55:14;8.40;99.90
55091;DHT22;40985;53.180;5.800;2024-01-30T11:57:40;8.30;99.90
55091;DHT22;40985;53.180;5.800;2024-01-30T12:00:13;8.00;99.90
55091;DHT22;40985;53.180;5.800;2024-01-30T12:02:39;8.10;99.90
55091;DHT22;40985;53.180;5.800;2024-01-30T12:05:06;8.60;99.90
55091;DHT22;40985;53.180;5.800;2024-01-30T12:07:35;8.00;99.90
55091;DHT22;40985;53.180;5.800;2024-01-30T12:10:02;8.60;99.90
55091;DHT22;40985;53.180;5.800;2024-01-30T12:12:29;8.60;99.90
55091;DHT22;40985;53.180;5.800;2024-01-30T12:14:56;8.00;99.90
55091;DHT22;40985;53.180;5.800;2024-01-30T12:17:32;8.60;99.90
55091;DHT22;40985;53.180;5.800;2024-01-30T12:20:07;7.90;99.90
55091;DHT22;40985;53.180;5.800;2024-01-30T12:22:36;7.80;99.90
55091;DHT22;40985;53.180;5.800;2024-01-30T12:25:08;8.60;99.90
55091;DHT22;40985;53.180;5.800;2024-01-30T12:27:34;8.00;99.90
55091;DHT22;40985;53.180;5.800;2024-01-30T12:30:00;8.50;99.90
55091;DHT22;40985;53.180;5.800;2024-01-30T12:32:26;8.40;99.90
55091;DHT22;40985;53.180;5.800;2024-01-30T12:34:55;8.40;99.90
55091;DHT22;40985;53.180;5.800;2024-01-30T12:37:22;8.50;99.90
55091;DHT22;40985;53.180;5.800;2024-01-30T12:39:51;8.50;99.90
55091;DHT22;40985;53.180;5.800;2024-01-30T12:42:20;7.80;99.90
55091;DHT22;40985;53.180;5.800;2024-01-30T12:44:47;8.40;99.90
55091;DHT22;40985;53.180;5.800;2024-01-30T12:47:13;8.50;99.90
55091;DHT22;40985;53.180;5.800;2024-01-30T12:49:44;8.40;99.90
55091;DHT22;40985;53.180;5.800;2024-01-30T12:52:11;8.50;99.90
55091;DHT22;40985;53.180;5.800;2024-01-30T12:54:37;8.40;99.90
55091;DHT22;40985;53.180;5.800;2024-01-30T12:57:04;8.00;99.90
55091;DHT22;40985;53.180;5.800;2024-01-30T12:59:30;7.70;99.90
55091;DHT22;40985;53.180;5.800;2024-01-30T13:01:56;8.30;99.90
55091;DHT22;40985;53.180;5.800;2024-01-30T13:04:22;7.60;99.90
55091;DHT22;40985;53.180;5.800;2024-01-30T13:06:48;8.40;99.90
55091;DHT22;40985;53.180;5.800;2024-01-30T13:09:14;8.40;99.90
55091;DHT22;40985;53.180;5.800;2024-01-30T13:11:41;8.30;99.90
55091;DHT22;40985;53.180;5.800;2024-01-30T13:14:06;7.80;99.90
55091;DHT22;40985;53.180;5.800;2024-01-30T13:16:32;8.30;99.90
55091;DHT22;40985;53.180;5.800;2024-01-30T13:18:58;7.80;99.90
55091;DHT22;40985;53.180;5.800;2024-01-30T13:21:24;8.40;99.90
55091;DHT22;40985;53.180;5.800;2024-01-30T13:23:49;8.20;99.90
55091;DHT22;40985;53.180;5.800;2024-01-30T13:26:18;8.00;99.90
55091;DHT22;40985;53.180;5.800;2024-01-30T13:28:44;7.70;99.90
55091;DHT22;40985;53.180;5.800;2024-01-30T13:31:10;7.50;99.90
55091;DHT22;40985;53.180;5.800;2024-01-30T13:33:36;8.20;99.90
55091;DHT22;40985;53.180;5.800;2024-01-30T13:36:01;8.20;99.90
55091;DHT22;40985;53.180;5.800;2024-01-30T13:38:27;8.30;99.90
55091;DHT22;40985;53.180;5.800;2024-01-30T13:40:53;7.90;99.90
55091;DHT22;40985;53.180;5.800;2024-01-30T13:43:18;8.30;99.90
55091;DHT22;40985;53.180;5.800;2024-01-30T13:45:44;8.40;99.90
55091;DHT22;40985;53.180;5.800;2024-01-30T13:48:11;8.30;99.90
55091;DHT22;40985;53.180;5.800;2024-01-30T13:50:37;8.10;99.90
55091;DHT22;40985;53.180;5.800;2024-01-30T13:53:03;7.90;99.90
55091;DHT22;40985;53.180;5.800;2024-01-30T13:55:30;8.10;99.90
55091;DHT22;40985;53.180;5.800;2024-01-30T13:57:55;8.30;99.90
55091;DHT22;40985;53.180;5.800;2024-01-30T14:00:22;7.60;99.90
55091;DHT22;40985;53.180;5.800;2024-01-30T14:02:48;8.20;99.90
55091;DHT22;40985;53.180;5.800;2024-01-30T14:05:14;8.20;99.90
55091;DHT22;40985;53.180;5.800;2024-01-30T14:07:40;8.30;99.90
55091;DHT22;40985;53.180;5.800;2024-01-30T14:10:09;8.30;99.90
55091;DHT22;40985;53.180;5.800;2024-01-30T14:12:36;8.00;99.90
55091;DHT22;40985;53.180;5.800;2024-01-30T14:15:02;7.30;99.90
55091;DHT22;40985;53.180;5.800;2024-01-30T14:17:28;7.90;99.90
55091;DHT22;40985;53.180;5.800;2024-01-30T14:19:53;8.20;99.90
55091;DHT22;40985;53.180;5.800;2024-01-30T14:22:19;7.70;99.90
55091;DHT22;40985;53.180;5.800;2024-01-30T14:24:45;8.10;99.90
55091;DHT22;40985;53.180;5.800;2024-01-30T14:27:12;7.90;99.90
55091;DHT22;40985;53.180;5.800;2024-01-30T14:29:38;8.10;99.90
55091;DHT22;40985;53.180;5.800;2024-01-30T14:32:04;8.10;99.90
55091;DHT22;40985;53.180;5.800;2024-01-30T14:34:30;8.20;99.90
55091;DHT22;40985;53.180;5.800;2024-01-30T14:36:55;7.30;99.90
55091;DHT22;40985;53.180;5.800;2024-01-30T14:39:22;7.50;99.90
55091;DHT22;40985;53.180;5.800;2024-01-30T14:41:47;7.60;99.90
55091;DHT22;40985;53.180;5.800;2024-01-30T14:44:13;7.80;99.90
55091;DHT22;40985;53.180;5.800;2024-01-30T14:46:39;7.90;99.90
55091;DHT22;40985;53.180;5.800;2024-01-30T14:49:05;8.10;99.90
55091;DHT22;40985;53.180;5.800;2024-01-30T14:51:33;8.10;99.90
55091;DHT22;40985;53.180;5.800;2024-01-30T14:53:59;7.60;99.90
55091;DHT22;40985;53.180;5.800;2024-01-30T14:56:26;7.90;99.90
55091;DHT22;40985;53.180;5.800;2024-01-30T14:58:52;7.50;99.90
55091;DHT22;40985;53.180;5.800;2024-01-30T15:01:17;8.00;99.90
55091;DHT22;40985;53.180;5.800;2024-01-30T15:03:44;7.10;99.90
55091;DHT22;40985;53.180;5.800;2024-01-30T15:06:12;7.10;99.90
55091;DHT22;40985;53.180;5.800;2024-01-30T15:08:38;7.40;99.90
55091;DHT22;40985;53.180;5.800;2024-01-30T15:11:04;7.00;99.90
55091;DHT22;40985;53.180;5.800;2024-01-30T15:13:30;7.90;99.90
55091;DHT22;40985;53.180;5.800;2024-01-30T15:15:56;6.90;99.90
55091;DHT22;40985;53.180;5.800;2024-01-30T15:18:22;6.90;99.90
55091;DHT22;40985;53.180;5.800;2024-01-30T15:20:49;7.40;99.90
55091;DHT22;40985;53.180;5.800;2024-01-30T15:23:14;7.20;99.90
55091;DHT22;40985;53.180;5.800;2024-01-30T15:25:41;7.20;99.90
55091;DHT22;40985;53.180;5.800;2024-01-30T15:28:08;7.70;99.90
55091;DHT22;40985;53.180;5.800;2024-01-30T15:30:35;7.70;99.90
55091;DHT22;40985;53.180;5.800;2024-01-30T15:33:00;7.60;99.90
55091;DHT22;40985;53.180;5.800;2024-01-30T15:35:27;6.60;99.90
55091;DHT22;40985;53.180;5.800;2024-01-30T15:37:52;7.60;99.90
55091;DHT22;40985;53.180;5.800;2024-01-30T15:40:18;7.10;99.90
55091;DHT22;40985;53.180;5.800;2024-01-30T15:42:44;6.70;99.90
55091;DHT22;40985;53.180;5.800;2024-01-30T15:45:10;7.50;99.90